createdAt,value
2018-11-01T00:00:43.811Z,69.37
2018-11-01T00:01:43.951Z,69.37
2018-11-01T00:02:44.123Z,69.58
2018-11-01T00:03:43.779Z,69.76
2018-11-01T00:04:43.792Z,69.74
2018-11-01T00:05:43.798Z,69.69
2018-11-01T00:06:43.872Z,69.95
2018-11-01T00:07:43.854Z,70.17
2018-11-01T00:08:43.805Z,69.77
2018-11-01T00:09:43.832Z,69.49
2018-11-01T00:10:43.790Z,69.92
2018-11-01T00:11:44.223Z,69.9
2018-11-01T00:12:43.774Z,70.21
2018-11-01T00:13:43.791Z,70.13
2018-11-01T00:14:44.015Z,70.15
2018-11-01T00:15:43.795Z,70.24
2018-11-01T00:16:43.801Z,70.01
2018-11-01T00:17:43.761Z,70.22
2018-11-01T00:18:43.808Z,70.49
2018-11-01T00:19:43.786Z,70.49
2018-11-01T00:20:43.768Z,70.35
2018-11-01T00:21:43.859Z,70.2
2018-11-01T00:22:43.762Z,69.97
2018-11-01T00:23:43.762Z,70.12
2018-11-01T00:24:43.784Z,69.83
2018-11-01T00:25:43.763Z,69.93
2018-11-01T00:26:43.793Z,69.94
2018-11-01T00:27:43.792Z,69.81
2018-11-01T00:28:43.757Z,69.79
2018-11-01T00:29:43.740Z,70.27
2018-11-01T00:30:43.753Z,70.05
2018-11-01T00:31:44.140Z,70.05
2018-11-01T00:32:43.826Z,70.02
2018-11-01T00:33:43.749Z,70.05
2018-11-01T00:34:43.755Z,69.88
2018-11-01T00:35:43.759Z,70.16
2018-11-01T00:36:43.762Z,70.09
2018-11-01T00:37:43.751Z,69.9
2018-11-01T00:38:43.806Z,70.08
2018-11-01T00:39:43.788Z,69.97
2018-11-01T00:40:43.729Z,70.12
2018-11-01T00:41:43.740Z,70.25
2018-11-01T00:42:43.831Z,70.06
2018-11-01T00:43:43.994Z,70.19
2018-11-01T00:44:43.751Z,69.96
2018-11-01T00:45:43.719Z,70.24
2018-11-01T00:46:43.760Z,70.2
2018-11-01T00:47:43.852Z,70.38
2018-11-01T00:48:43.744Z,70.4
2018-11-01T00:49:43.815Z,70.23
2018-11-01T00:50:43.921Z,70.17
2018-11-01T00:51:43.722Z,70.21
2018-11-01T00:52:43.811Z,70.11
2018-11-01T00:53:43.738Z,70.2
2018-11-01T00:54:43.753Z,70.1
2018-11-01T00:55:43.721Z,70.16
2018-11-01T00:56:43.874Z,70.25
2018-11-01T00:57:43.787Z,70.29
2018-11-01T00:58:43.687Z,70.16
2018-11-01T00:59:44.156Z,70.45
2018-11-01T01:00:43.997Z,70.36
2018-11-01T01:01:43.712Z,70.37
2018-11-01T01:02:43.827Z,70.37
2018-11-01T01:03:43.689Z,70.32
2018-11-01T01:04:43.720Z,70.3
2018-11-01T01:05:43.729Z,70.57
2018-11-01T01:06:43.727Z,70.66
2018-11-01T01:07:43.732Z,70.5
2018-11-01T01:08:43.746Z,70.71
2018-11-01T01:09:43.676Z,70.68
2018-11-01T01:10:43.689Z,70.58
2018-11-01T01:11:43.747Z,70.75
2018-11-01T01:12:43.705Z,70.77
2018-11-01T01:13:44.111Z,70.64
2018-11-01T01:14:43.743Z,70.64
2018-11-01T01:15:43.755Z,70.66
2018-11-01T01:16:43.699Z,70.54
2018-11-01T01:17:43.733Z,70.69
2018-11-01T01:18:43.854Z,70.85
2018-11-01T01:19:43.664Z,70.97
2018-11-01T01:20:43.717Z,70.8
2018-11-01T01:21:43.799Z,71.06
2018-11-01T01:22:43.692Z,70.9
2018-11-01T01:23:43.717Z,70.79
2018-11-01T01:24:43.697Z,71.01
2018-11-01T01:25:43.756Z,70.94
2018-11-01T01:26:43.688Z,70.81
2018-11-01T01:27:43.683Z,71.11
2018-11-01T01:28:43.685Z,71.22
2018-11-01T01:29:44.114Z,71.08
2018-11-01T01:30:43.694Z,71.06
2018-11-01T01:31:43.691Z,70.97
2018-11-01T01:32:43.755Z,71.04
2018-11-01T01:33:43.647Z,70.89
2018-11-01T01:34:44.176Z,70.86
2018-11-01T01:35:43.693Z,70.86
2018-11-01T01:36:43.755Z,71.12
2018-11-01T01:37:43.662Z,71.02
2018-11-01T01:38:44.182Z,71.29
2018-11-01T01:39:43.676Z,71.43
2018-11-01T01:40:43.659Z,71.42
2018-11-01T01:41:43.668Z,71.34
2018-11-01T01:42:43.716Z,71.6
2018-11-01T01:43:43.669Z,71.43
2018-11-01T01:44:43.649Z,71.21
2018-11-01T01:45:43.761Z,71.1
2018-11-01T01:46:43.699Z,71.37
2018-11-01T01:47:43.675Z,71.66
2018-11-01T01:48:43.691Z,71.82
2018-11-01T01:49:43.623Z,71.78
2018-11-01T01:50:44.324Z,71.96
2018-11-01T01:51:44.052Z,72.21
2018-11-01T01:52:43.620Z,71.92
2018-11-01T01:53:43.646Z,71.79
2018-11-01T01:54:43.685Z,71.72
2018-11-01T01:55:43.663Z,71.57
2018-11-01T01:56:43.625Z,71.68
2018-11-01T01:57:43.717Z,71.84
2018-11-01T01:58:43.736Z,71.74
2018-11-01T01:59:43.620Z,72.15
2018-11-01T02:00:44.241Z,72.05
2018-11-01T02:01:44.019Z,72.08
2018-11-01T02:02:43.639Z,72.1
2018-11-01T02:03:43.641Z,72.09
2018-11-01T02:04:43.624Z,72.26
2018-11-01T02:05:43.619Z,71.92
2018-11-01T02:06:43.615Z,72.03
2018-11-01T02:07:43.703Z,71.91
2018-11-01T02:08:43.657Z,71.81
2018-11-01T02:09:43.600Z,71.95
2018-11-01T02:10:43.606Z,72.03
2018-11-01T02:11:44.093Z,72.13
2018-11-01T02:12:43.616Z,72.11
2018-11-01T02:13:43.609Z,72.15
2018-11-01T02:14:43.709Z,72.12
2018-11-01T02:15:43.690Z,71.91
2018-11-01T02:16:43.742Z,72.02
2018-11-01T02:17:43.632Z,72.12
2018-11-01T02:18:43.578Z,72.5
2018-11-01T02:19:43.858Z,72.51
2018-11-01T02:20:43.612Z,72.47
2018-11-01T02:21:43.598Z,72.16
2018-11-01T02:22:43.690Z,72.07
2018-11-01T02:23:43.607Z,72.05
2018-11-01T02:24:43.740Z,72.12
2018-11-01T02:25:43.596Z,72.71
2018-11-01T02:26:43.578Z,72.71
2018-11-01T02:27:43.892Z,72.66
2018-11-01T02:28:43.635Z,72.71
2018-11-01T02:29:43.607Z,72.37
2018-11-01T02:30:43.595Z,72.37
2018-11-01T02:31:43.713Z,72.23
2018-11-01T02:32:43.628Z,72.48
2018-11-01T02:33:43.636Z,72.62
2018-11-01T02:34:43.579Z,72.45
2018-11-01T02:35:43.596Z,72.67
2018-11-01T02:36:43.554Z,72.93
2018-11-01T02:37:43.932Z,72.81
2018-11-01T02:38:44.116Z,72.89
2018-11-01T02:39:43.588Z,72.99
2018-11-01T02:40:43.611Z,73.24
2018-11-01T02:41:43.548Z,73.35
2018-11-01T02:42:43.573Z,73.27
2018-11-01T02:43:43.779Z,73
2018-11-01T02:44:43.682Z,72.97
2018-11-01T02:45:43.550Z,73.11
2018-11-01T02:46:43.734Z,73.71
2018-11-01T02:47:44.133Z,73.92
2018-11-01T02:48:43.673Z,74.1
2018-11-01T02:49:43.545Z,74.31
2018-11-01T02:50:43.555Z,74.99
2018-11-01T02:51:43.555Z,75.43
2018-11-01T02:52:43.863Z,75.91
2018-11-01T02:53:43.663Z,76.12
2018-11-01T02:54:43.538Z,76.13
2018-11-01T02:55:43.518Z,76.32
2018-11-01T02:56:43.553Z,76.24
2018-11-01T02:57:43.624Z,76.68
2018-11-01T02:58:44.019Z,76.6
2018-11-01T02:59:44.055Z,76.7
2018-11-01T03:00:43.523Z,76.91
2018-11-01T03:01:43.597Z,77.13
2018-11-01T03:02:43.570Z,77.51
2018-11-01T03:03:43.555Z,77.99
2018-11-01T03:04:43.537Z,78.26
2018-11-01T03:05:43.552Z,78.09
2018-11-01T03:06:43.542Z,78.25
2018-11-01T03:07:43.593Z,79.12
2018-11-01T03:08:43.527Z,79.48
2018-11-01T03:09:43.681Z,79.08
2018-11-01T03:10:43.537Z,78.72
2018-11-01T03:11:43.550Z,78.62
2018-11-01T03:12:43.579Z,78.97
2018-11-01T03:13:43.508Z,78.91
2018-11-01T03:14:43.542Z,79.17
2018-11-01T03:15:43.558Z,79.29
2018-11-01T03:16:43.579Z,79.01
2018-11-01T03:17:43.576Z,78.94
2018-11-01T03:18:43.536Z,78.96
2018-11-01T03:19:43.682Z,78.82
2018-11-01T03:20:43.538Z,78.85
2018-11-01T03:21:43.529Z,78.63
2018-11-01T03:22:43.877Z,78.61
2018-11-01T03:23:43.502Z,79.35
2018-11-01T03:24:43.664Z,78.86
2018-11-01T03:25:43.523Z,78.75
2018-11-01T03:26:44.379Z,78.43
2018-11-01T03:27:43.548Z,78.05
2018-11-01T03:28:43.818Z,78.27
2018-11-01T03:29:43.534Z,78.56
2018-11-01T03:30:43.516Z,78.08
2018-11-01T03:31:43.532Z,78.05
2018-11-01T03:32:43.521Z,78.82
2018-11-01T03:33:43.530Z,78.28
2018-11-01T03:34:43.483Z,78.31
2018-11-01T03:35:43.817Z,78.74
2018-11-01T03:36:43.668Z,78.86
2018-11-01T03:37:43.505Z,78.85
2018-11-01T03:38:43.695Z,78.68
2018-11-01T03:39:43.495Z,79.32
2018-11-01T03:40:43.492Z,79.56
2018-11-01T03:41:43.543Z,80.04
2018-11-01T03:42:43.653Z,80.13
2018-11-01T03:43:43.459Z,80.64
2018-11-01T03:44:43.469Z,80.77
2018-11-01T03:45:44.042Z,80.61
2018-11-01T03:46:43.492Z,80.48
2018-11-01T03:47:43.519Z,80.17
2018-11-01T03:48:43.488Z,80.26
2018-11-01T03:49:43.612Z,79.8
2018-11-01T03:50:43.847Z,79.57
2018-11-01T03:51:43.839Z,79.29
2018-11-01T03:52:43.531Z,79.52
2018-11-01T03:53:44.076Z,79.42
2018-11-01T03:54:43.486Z,79.39
2018-11-01T03:55:43.476Z,79.4
2018-11-01T03:56:43.515Z,78.94
2018-11-01T03:57:43.481Z,79.18
2018-11-01T03:58:43.617Z,79.57
2018-11-01T03:59:43.451Z,79.45
2018-11-01T04:00:43.453Z,79.19
2018-11-01T04:01:43.496Z,79.11
2018-11-01T04:02:43.525Z,79.26
2018-11-01T04:03:43.778Z,79.11
2018-11-01T04:04:43.463Z,79.46
2018-11-01T04:05:43.447Z,79.23
2018-11-01T04:06:43.430Z,78.84
2018-11-01T04:07:43.452Z,79.5
2018-11-01T04:08:43.486Z,79.56
2018-11-01T04:09:43.432Z,79.39
2018-11-01T04:10:43.482Z,79.61
2018-11-01T04:11:43.540Z,79.73
2018-11-01T04:12:43.492Z,79.7
2018-11-01T04:13:43.928Z,79.29
2018-11-01T04:14:43.444Z,79.05
2018-11-01T04:15:43.514Z,79.54
2018-11-01T04:16:43.615Z,79.49
2018-11-01T04:17:43.451Z,79.63
2018-11-01T04:18:43.447Z,79.52
2018-11-01T04:19:43.468Z,79.21
2018-11-01T04:20:43.474Z,79.21
2018-11-01T04:21:43.428Z,79.4
2018-11-01T04:22:43.433Z,79.78
2018-11-01T04:23:43.413Z,79.34
2018-11-01T04:24:43.415Z,79.38
2018-11-01T04:25:43.927Z,79.37
2018-11-01T04:26:43.396Z,79.03
2018-11-01T04:27:43.640Z,79.5
2018-11-01T04:28:43.561Z,80.05
2018-11-01T04:29:43.412Z,80.23
2018-11-01T04:30:43.389Z,80.38
2018-11-01T04:31:43.436Z,80.6
2018-11-01T04:32:43.411Z,80.45
2018-11-01T04:33:44.726Z,80.46
2018-11-01T04:34:43.423Z,80.46
2018-11-01T04:35:43.404Z,80.25
2018-11-01T04:36:43.391Z,79.91
2018-11-01T04:37:43.468Z,79.72
2018-11-01T04:38:43.503Z,79.65
2018-11-01T04:39:43.458Z,79.44
2018-11-01T04:40:44.316Z,79.22
2018-11-01T04:41:43.525Z,79.27
2018-11-01T04:42:43.447Z,80.01
2018-11-01T04:43:43.403Z,80.02
2018-11-01T04:44:43.410Z,79.39
2018-11-01T04:45:43.388Z,79.87
2018-11-01T04:46:43.385Z,79.73
2018-11-01T04:47:44.216Z,79.33
2018-11-01T04:48:43.462Z,79.55
2018-11-01T04:49:43.770Z,79.85
2018-11-01T04:50:43.402Z,79.44
2018-11-01T04:51:43.393Z,79.17
2018-11-01T04:52:43.399Z,78.91
2018-11-01T04:53:43.359Z,78.97
2018-11-01T04:54:43.376Z,78.83
2018-11-01T04:55:43.398Z,78.97
2018-11-01T04:56:43.501Z,78.84
2018-11-01T04:57:43.407Z,79.84
2018-11-01T04:58:43.368Z,79.73
2018-11-01T04:59:43.449Z,79.57
2018-11-01T05:00:43.345Z,79.3
2018-11-01T05:01:43.413Z,79.8
2018-11-01T05:02:43.461Z,79.44
2018-11-01T05:03:43.572Z,80.41
2018-11-01T05:04:43.461Z,80.41
2018-11-01T05:05:43.361Z,80.08
2018-11-01T05:06:43.724Z,79.88
2018-11-01T05:07:43.371Z,80.11
2018-11-01T05:08:43.410Z,79.84
2018-11-01T05:09:43.345Z,79.74
2018-11-01T05:10:43.333Z,79.72
2018-11-01T05:11:43.348Z,80.43
2018-11-01T05:12:43.636Z,80.69
2018-11-01T05:13:43.418Z,80.76
2018-11-01T05:14:43.280Z,80.74
2018-11-01T05:15:43.540Z,81.07
2018-11-01T05:16:43.412Z,80.66
2018-11-01T05:17:43.639Z,80.76
2018-11-01T05:18:43.324Z,80.63
2018-11-01T05:19:43.308Z,80.24
2018-11-01T05:20:43.390Z,80.21
2018-11-01T05:21:43.355Z,80.39
2018-11-01T05:22:43.455Z,80.41
2018-11-01T05:23:43.317Z,80.57
2018-11-01T05:24:43.611Z,80.65
2018-11-01T05:25:43.767Z,80.77
2018-11-01T05:26:43.726Z,80.57
2018-11-01T05:27:43.386Z,80.76
2018-11-01T05:28:43.325Z,80.71
2018-11-01T05:29:43.337Z,80.76
2018-11-01T05:30:43.299Z,81.12
2018-11-01T05:31:43.324Z,81.12
2018-11-01T05:32:43.318Z,81.35
2018-11-01T05:33:43.351Z,81.75
2018-11-01T05:34:43.391Z,81.7
2018-11-01T05:35:43.343Z,81.5
2018-11-01T05:36:43.313Z,81.58
2018-11-01T05:37:43.473Z,81.52
2018-11-01T05:38:43.453Z,81.52
2018-11-01T05:39:43.305Z,81.18
2018-11-01T05:40:43.534Z,81.57
2018-11-01T05:41:43.324Z,81.05
2018-11-01T05:42:43.350Z,81.49
2018-11-01T05:43:43.328Z,81.07
2018-11-01T05:44:43.342Z,81.61
2018-11-01T05:45:43.386Z,81.44
2018-11-01T05:46:43.670Z,81.53
2018-11-01T05:47:43.288Z,81.52
2018-11-01T05:48:43.344Z,81.48
2018-11-01T05:49:43.512Z,81.02
2018-11-01T05:50:43.300Z,81.05
2018-11-01T05:51:43.340Z,80.78
2018-11-01T05:52:43.320Z,80.71
2018-11-01T05:53:43.325Z,81.75
2018-11-01T05:54:43.284Z,81.79
2018-11-01T05:55:43.367Z,81.83
2018-11-01T05:56:43.334Z,81.88
2018-11-01T05:57:43.275Z,82.01
2018-11-01T05:58:43.348Z,82.22
2018-11-01T05:59:43.568Z,82.66
2018-11-01T06:00:43.275Z,82.94
2018-11-01T06:01:43.277Z,82.87
2018-11-01T06:02:43.289Z,83.64
2018-11-01T06:03:43.337Z,83.76
2018-11-01T06:04:43.300Z,84.29
2018-11-01T06:05:43.725Z,84.19
2018-11-01T06:06:43.292Z,84.41
2018-11-01T06:07:43.293Z,83.96
2018-11-01T06:08:43.294Z,83.7
2018-11-01T06:09:43.323Z,83.09
2018-11-01T06:10:43.267Z,82.69
2018-11-01T06:11:43.261Z,83.03
2018-11-01T06:12:43.658Z,82.95
2018-11-01T06:13:43.289Z,82.98
2018-11-01T06:14:43.282Z,83.02
2018-11-01T06:15:43.273Z,83.1
2018-11-01T06:16:43.385Z,83.96
2018-11-01T06:17:43.313Z,84.21
2018-11-01T06:18:43.800Z,84.09
2018-11-01T06:19:43.304Z,83.78
2018-11-01T06:20:43.931Z,83.42
2018-11-01T06:21:43.239Z,83.01
2018-11-01T06:22:43.248Z,82.99
2018-11-01T06:23:43.264Z,83.26
2018-11-01T06:24:43.234Z,82.84
2018-11-01T06:25:43.614Z,82.6
2018-11-01T06:26:43.327Z,82.48
2018-11-01T06:27:43.334Z,82.26
2018-11-01T06:28:43.212Z,82.22
2018-11-01T06:29:43.268Z,82.97
2018-11-01T06:30:43.329Z,83.02
2018-11-01T06:31:43.256Z,82.84
2018-11-01T06:32:43.228Z,83
2018-11-01T06:33:43.247Z,83.11
2018-11-01T06:34:43.261Z,83.26
2018-11-01T06:35:43.210Z,83.51
2018-11-01T06:36:43.190Z,83.71
2018-11-01T06:37:43.255Z,83.93
2018-11-01T06:38:43.226Z,84.44
2018-11-01T06:39:43.237Z,84.54
2018-11-01T06:40:43.271Z,84.31
2018-11-01T06:41:43.451Z,84.14
2018-11-01T06:42:43.262Z,83.96
2018-11-01T06:43:43.585Z,83.82
2018-11-01T06:44:43.440Z,83.51
2018-11-01T06:45:43.293Z,83.38
2018-11-01T06:46:43.187Z,83.66
2018-11-01T06:47:43.197Z,83.6
2018-11-01T06:48:43.337Z,83.68
2018-11-01T06:49:43.200Z,83.68
2018-11-01T06:50:43.205Z,83.51
2018-11-01T06:51:43.249Z,83.7
2018-11-01T06:52:43.511Z,83.43
2018-11-01T06:53:43.195Z,83.48
2018-11-01T06:54:43.223Z,83.48
2018-11-01T06:55:43.531Z,83.81
2018-11-01T06:56:43.181Z,83.98
2018-11-01T06:57:43.199Z,84.31
2018-11-01T06:58:43.460Z,84.9
2018-11-01T06:59:43.237Z,84.27
2018-11-01T07:00:43.245Z,83.55
2018-11-01T07:01:43.198Z,82.9
2018-11-01T07:02:43.247Z,82.4
2018-11-01T07:03:43.224Z,81.86
2018-11-01T07:04:43.194Z,81.67
2018-11-01T07:05:43.552Z,81.51
2018-11-01T07:06:43.200Z,81.17
2018-11-01T07:07:43.825Z,80.99
2018-11-01T07:08:43.246Z,80.99
2018-11-01T07:09:43.590Z,80.84
2018-11-01T07:10:43.199Z,81.14
2018-11-01T07:11:43.189Z,82.12
2018-11-01T07:12:43.175Z,81.9
2018-11-01T07:13:43.252Z,82.3
2018-11-01T07:14:43.161Z,82.37
2018-11-01T07:15:43.167Z,82.2
2018-11-01T07:16:43.161Z,82.21
2018-11-01T07:17:43.782Z,81.87
2018-11-01T07:18:43.267Z,81.73
2018-11-01T07:19:43.162Z,82.3
2018-11-01T07:20:43.200Z,82.16
2018-11-01T07:21:43.243Z,82.42
2018-11-01T07:22:43.205Z,81.89
2018-11-01T07:23:43.166Z,81.73
2018-11-01T07:24:43.142Z,81.93
2018-11-01T07:25:43.377Z,82.58
2018-11-01T07:26:43.184Z,82.69
2018-11-01T07:27:43.144Z,82.91
2018-11-01T07:28:43.173Z,83.04
2018-11-01T07:29:43.147Z,83.11
2018-11-01T07:30:43.160Z,83.44
2018-11-01T07:31:43.152Z,83.51
2018-11-01T07:32:43.970Z,83.34
2018-11-01T07:33:43.219Z,83.45
2018-11-01T07:34:43.140Z,83.19
2018-11-01T07:35:43.142Z,82.74
2018-11-01T07:36:43.146Z,82.61
2018-11-01T07:37:43.149Z,82.79
2018-11-01T07:38:43.156Z,82.6
2018-11-01T07:39:43.404Z,82.52
2018-11-01T07:40:43.149Z,83.33
2018-11-01T07:41:43.140Z,83.77
2018-11-01T07:42:43.155Z,83.69
2018-11-01T07:43:43.172Z,84.24
2018-11-01T07:44:43.127Z,84.27
2018-11-01T07:45:43.186Z,84.73
2018-11-01T07:46:43.139Z,85.02
2018-11-01T07:47:43.245Z,84.92
2018-11-01T07:48:44.576Z,84.35
2018-11-01T07:49:43.132Z,84.44
2018-11-01T07:50:43.137Z,84.51
2018-11-01T07:51:43.246Z,84.43
2018-11-01T07:52:43.983Z,84.62
2018-11-01T07:53:43.192Z,84.77
2018-11-01T07:54:43.110Z,84.83
2018-11-01T07:55:43.114Z,85.08
2018-11-01T07:56:43.111Z,85.04
2018-11-01T07:57:43.140Z,85.01
2018-11-01T07:58:43.120Z,85.34
2018-11-01T07:59:43.140Z,85.54
2018-11-01T08:00:43.123Z,85.29
2018-11-01T08:01:43.152Z,85.03
2018-11-01T08:02:43.133Z,84.71
2018-11-01T08:03:43.116Z,84.27
2018-11-01T08:04:43.145Z,83.89
2018-11-01T08:05:43.336Z,83.71
2018-11-01T08:06:43.116Z,83.53
2018-11-01T08:07:43.155Z,83.52
2018-11-01T08:08:43.176Z,83.78
2018-11-01T08:09:43.327Z,83.32
2018-11-01T08:10:43.136Z,83.82
2018-11-01T08:11:43.335Z,83.5
2018-11-01T08:12:43.102Z,83.22
2018-11-01T08:13:43.145Z,84.19
2018-11-01T08:14:43.206Z,84.15
2018-11-01T08:15:43.280Z,83.53
2018-11-01T08:16:43.810Z,83.33
2018-11-01T08:17:43.082Z,83.79
2018-11-01T08:18:43.207Z,84.33
2018-11-01T08:19:43.794Z,84.17
2018-11-01T08:20:44.283Z,84.28
2018-11-01T08:21:43.219Z,84.07
2018-11-01T08:22:43.438Z,83.97
2018-11-01T08:23:43.102Z,84.44
2018-11-01T08:24:43.405Z,84.39
2018-11-01T08:25:43.127Z,84.64
2018-11-01T08:26:43.089Z,84.59
2018-11-01T08:27:43.278Z,84.78
2018-11-01T08:28:43.325Z,84.92
2018-11-01T08:29:43.170Z,84.59
2018-11-01T08:30:43.472Z,84.8
2018-11-01T08:31:43.106Z,84.94
2018-11-01T08:32:43.366Z,85.14
2018-11-01T08:33:43.296Z,84.98
2018-11-01T08:34:43.198Z,85.32
2018-11-01T08:35:43.158Z,85.4
2018-11-01T08:36:43.179Z,85.56
2018-11-01T08:37:43.097Z,85.25
2018-11-01T08:38:43.104Z,85.19
2018-11-01T08:39:43.103Z,84.99
2018-11-01T08:40:43.884Z,84.97
2018-11-01T08:41:43.070Z,84.55
2018-11-01T08:42:43.446Z,84.74
2018-11-01T08:43:43.129Z,85.19
2018-11-01T08:44:43.631Z,85.2
2018-11-01T08:45:43.141Z,85.11
2018-11-01T08:46:43.186Z,85.4
2018-11-01T08:47:43.501Z,85.31
2018-11-01T08:48:43.093Z,85.23
2018-11-01T08:49:43.091Z,85.17
2018-11-01T08:50:43.205Z,84.91
2018-11-01T08:51:43.108Z,84.95
2018-11-01T08:52:43.119Z,84.75
2018-11-01T08:53:43.129Z,84.76
2018-11-01T08:54:43.128Z,84.81
2018-11-01T08:55:43.453Z,85.01
2018-11-01T08:56:43.040Z,84.87
2018-11-01T08:57:43.439Z,84.99
2018-11-01T08:58:43.149Z,84.96
2018-11-01T08:59:43.095Z,85.17
2018-11-01T09:00:43.381Z,84.97
2018-11-01T09:01:43.090Z,84.2
2018-11-01T09:02:43.086Z,84.53
2018-11-01T09:03:43.167Z,84.21
2018-11-01T09:04:43.172Z,84.44
2018-11-01T09:05:43.151Z,84.81
2018-11-01T09:06:43.066Z,84.56
2018-11-01T09:07:44.726Z,84.72
2018-11-01T09:08:43.020Z,84.8
2018-11-01T09:09:43.319Z,84.87
2018-11-01T09:10:43.031Z,84.92
2018-11-01T09:11:43.555Z,84.7
2018-11-01T09:12:43.563Z,84.42
2018-11-01T09:13:43.059Z,84.77
2018-11-01T09:14:43.283Z,84.42
2018-11-01T09:15:43.218Z,84.47
2018-11-01T09:16:43.170Z,84.18
2018-11-01T09:17:43.344Z,84.29
2018-11-01T09:18:43.133Z,84.4
2018-11-01T09:19:43.098Z,84.29
2018-11-01T09:20:43.352Z,84.13
2018-11-01T09:21:43.396Z,84.05
2018-11-01T09:22:43.154Z,83.91
2018-11-01T09:23:43.406Z,83.88
2018-11-01T09:24:43.216Z,83.65
2018-11-01T09:25:43.060Z,83.83
2018-11-01T09:26:43.360Z,83.62
2018-11-01T09:27:43.039Z,83.61
2018-11-01T09:28:42.991Z,83.72
2018-11-01T09:29:43.014Z,83.99
2018-11-01T09:30:43.089Z,83.68
2018-11-01T09:31:43.194Z,83.76
2018-11-01T09:32:43.228Z,83.63
2018-11-01T09:33:43.014Z,84.04
2018-11-01T09:34:43.023Z,83.79
2018-11-01T09:35:43.593Z,83.51
2018-11-01T09:36:43.052Z,83.18
2018-11-01T09:37:43.093Z,83.15
2018-11-01T09:38:42.953Z,82.89
2018-11-01T09:39:43.004Z,82.78
2018-11-01T09:40:43.067Z,82.75
2018-11-01T09:41:43.129Z,82.75
2018-11-01T09:42:43.088Z,82.51
2018-11-01T09:43:42.950Z,82.51
2018-11-01T09:44:42.996Z,82.65
2018-11-01T09:45:43.088Z,82.85
2018-11-01T09:46:45.266Z,82.87
2018-11-01T09:48:43.206Z,82.73
2018-11-01T09:49:42.948Z,82.56
2018-11-01T09:50:43.076Z,82.72
2018-11-01T09:51:42.998Z,82.5
2018-11-01T09:52:42.943Z,82.51
2018-11-01T09:53:43.077Z,82.53
2018-11-01T09:54:43.376Z,82.73
2018-11-01T09:55:43.956Z,82.51
2018-11-01T09:56:42.941Z,82.53
2018-11-01T09:57:43.027Z,82.45
2018-11-01T09:58:43.799Z,82.56
2018-11-01T09:59:43.174Z,82.86
2018-11-01T10:00:43.028Z,82.72
2018-11-01T10:01:43.159Z,82.5
2018-11-01T10:02:43.011Z,82.38
2018-11-01T10:03:43.175Z,82.74
2018-11-01T10:04:43.186Z,82.35
2018-11-01T10:05:43.199Z,82.37
2018-11-01T10:06:43.335Z,82.27
2018-11-01T10:07:43.118Z,82.27
2018-11-01T10:08:43.104Z,82.22
2018-11-01T10:09:43.124Z,82.27
2018-11-01T10:10:43.018Z,82.45
2018-11-01T10:11:42.943Z,82.39
2018-11-01T10:12:43.047Z,82.53
2018-11-01T10:13:43.078Z,82.55
2018-11-01T10:14:42.892Z,82.39
2018-11-01T10:15:44.533Z,82.84
2018-11-01T10:16:44.786Z,82.6
2018-11-01T10:17:46.135Z,82.48
2018-11-01T10:18:43.587Z,82.65
2018-11-01T10:19:43.040Z,82.5
2018-11-01T10:20:43.097Z,82.31
2018-11-01T10:21:43.561Z,82.27
2018-11-01T10:22:44.214Z,82.1
2018-11-01T10:23:43.219Z,82
2018-11-01T10:24:43.311Z,82.13
2018-11-01T10:25:43.397Z,82.31
2018-11-01T10:26:43.499Z,82.07
2018-11-01T10:27:44.360Z,82.09
2018-11-01T10:28:42.908Z,82.01
2018-11-01T10:29:43.091Z,82.24
2018-11-01T10:30:43.257Z,83.02
2018-11-01T10:31:43.001Z,83.44
2018-11-01T10:32:42.890Z,83.29
2018-11-01T10:33:43.219Z,83.08
2018-11-01T10:34:43.714Z,82.93
2018-11-01T10:35:42.930Z,82.58
2018-11-01T10:36:46.190Z,82.47
2018-11-01T10:37:43.527Z,82.51
2018-11-01T10:38:43.030Z,82.37
2018-11-01T10:39:42.892Z,82.28
2018-11-01T10:40:43.257Z,82.51
2018-11-01T10:41:44.614Z,82.56
2018-11-01T10:42:43.254Z,82.99
2018-11-01T10:43:43.494Z,82.94
2018-11-01T10:44:43.709Z,82.97
2018-11-01T10:45:43.184Z,82.89
2018-11-01T10:46:43.171Z,82.9
2018-11-01T10:47:43.793Z,83.32
2018-11-01T10:48:43.191Z,83.43
2018-11-01T10:49:42.940Z,83.32
2018-11-01T10:50:45.266Z,83.43
2018-11-01T10:51:43.172Z,83.72
2018-11-01T10:52:42.991Z,83.51
2018-11-01T10:53:43.601Z,83.43
2018-11-01T10:54:42.939Z,83.18
2018-11-01T10:55:43.286Z,83.15
2018-11-01T10:56:42.834Z,82.64
2018-11-01T10:57:42.861Z,82.51
2018-11-01T10:58:43.197Z,82.18
2018-11-01T10:59:43.011Z,82.16
2018-11-01T11:00:46.156Z,81.56
2018-11-01T11:01:42.908Z,81.72
2018-11-01T11:02:43.268Z,81.64
2018-11-01T11:03:43.203Z,81.67
2018-11-01T11:04:43.185Z,81.68
2018-11-01T11:05:42.837Z,81.59
2018-11-01T11:06:43.124Z,81.41
2018-11-01T11:07:42.882Z,81.56
2018-11-01T11:08:42.951Z,81.88
2018-11-01T11:09:43.263Z,82.27
2018-11-01T11:10:43.023Z,82.09
2018-11-01T11:11:43.220Z,81.82
2018-11-01T11:12:43.152Z,81.68
2018-11-01T11:13:42.899Z,81.59
2018-11-01T11:14:42.992Z,81.29
2018-11-01T11:15:43.006Z,81.18
2018-11-01T11:16:42.854Z,80.65
2018-11-01T11:17:42.876Z,80.85
2018-11-01T11:18:43.271Z,81.04
2018-11-01T11:19:42.841Z,81.1
2018-11-01T11:20:45.050Z,81.13
2018-11-01T11:21:43.193Z,81.1
2018-11-01T11:22:42.950Z,80.88
2018-11-01T11:23:44.135Z,80.7
2018-11-01T11:24:42.836Z,80.9
2018-11-01T11:25:42.894Z,80.9
2018-11-01T11:26:42.831Z,80.89
2018-11-01T11:27:43.160Z,80.92
2018-11-01T11:28:42.814Z,80.94
2018-11-01T11:29:42.838Z,80.65
2018-11-01T11:30:56.330Z,80.47
2018-11-01T11:32:42.826Z,80.79
2018-11-01T11:33:42.978Z,80.82
2018-11-01T11:34:43.014Z,80.9
2018-11-01T11:35:43.555Z,80.93
2018-11-01T11:36:42.822Z,81.26
2018-11-01T11:37:42.999Z,81.18
2018-11-01T11:38:42.904Z,81.38
2018-11-01T11:39:45.807Z,81.55
2018-11-01T11:40:43.179Z,81.68
2018-11-01T11:41:44.289Z,81.67
2018-11-01T11:42:43.124Z,81.57
2018-11-01T11:43:42.812Z,81.59
2018-11-01T11:44:42.957Z,81.72
2018-11-01T11:45:43.415Z,81.81
2018-11-01T11:46:42.813Z,81.84
2018-11-01T11:47:43.949Z,81.66
2018-11-01T11:48:51.449Z,81.62
2018-11-01T11:49:46.435Z,81.41
2018-11-01T11:50:42.918Z,81.43
2018-11-01T11:51:43.019Z,81.33
2018-11-01T11:52:42.781Z,81.29
2018-11-01T11:53:43.199Z,81.27
2018-11-01T11:54:45.733Z,81.51
2018-11-01T11:55:42.979Z,81.36
2018-11-01T11:56:42.866Z,81.08
2018-11-01T11:57:43.000Z,80.84
2018-11-01T11:58:42.805Z,80.51
2018-11-01T11:59:42.803Z,80.58
2018-11-01T12:00:43.181Z,80.59
2018-11-01T12:01:42.931Z,80.41
2018-11-01T12:02:43.091Z,80.37
2018-11-01T12:03:42.795Z,80.57
2018-11-01T12:04:42.867Z,80.48
2018-11-01T12:05:43.278Z,80.52
2018-11-01T12:06:43.033Z,80.47
2018-11-01T12:07:43.150Z,80.47
2018-11-01T12:08:43.251Z,80.68
2018-11-01T12:09:43.012Z,80.62
2018-11-01T12:10:42.808Z,80.62
2018-11-01T12:11:42.765Z,80.51
2018-11-01T12:12:43.107Z,80.54
2018-11-01T12:13:42.990Z,80.61
2018-11-01T12:14:42.799Z,80.59
2018-11-01T12:15:42.747Z,80.82
2018-11-01T12:16:42.740Z,80.72
2018-11-01T12:17:42.745Z,80.63
2018-11-01T12:18:42.819Z,80.45
2018-11-01T12:19:42.736Z,80.31
2018-11-01T12:20:42.736Z,80.46
2018-11-01T12:21:42.751Z,80.53
2018-11-01T12:22:42.791Z,80.71
2018-11-01T12:23:43.143Z,80.62
2018-11-01T12:24:42.795Z,80.54
2018-11-01T12:25:42.925Z,80.53
2018-11-01T12:26:43.124Z,80.18
2018-11-01T12:27:42.978Z,79.72
2018-11-01T12:28:43.992Z,79.35
2018-11-01T12:29:42.882Z,79
2018-11-01T12:30:42.703Z,78.46
2018-11-01T12:31:42.718Z,78.46
2018-11-01T12:32:42.720Z,78.53
2018-11-01T12:33:43.081Z,78.36
2018-11-01T12:34:42.797Z,78.47
2018-11-01T12:35:43.377Z,78.39
2018-11-01T12:36:42.708Z,78.33
2018-11-01T12:37:42.748Z,78.26
2018-11-01T12:38:42.706Z,78.35
2018-11-01T12:39:42.847Z,78.57
2018-11-01T12:40:42.723Z,78.69
2018-11-01T12:41:43.443Z,78.75
2018-11-01T12:42:42.740Z,78.36
2018-11-01T12:43:42.724Z,78.53
2018-11-01T12:44:42.729Z,78.17
2018-11-01T12:45:42.706Z,78.61
2018-11-01T12:46:43.013Z,78.41
2018-11-01T12:47:42.696Z,78.59
2018-11-01T12:48:42.724Z,78.5
2018-11-01T12:49:43.263Z,78.44
2018-11-01T12:50:42.843Z,78.45
2018-11-01T12:51:42.687Z,78.63
2018-11-01T12:52:42.936Z,78.32
2018-11-01T12:53:42.659Z,78.27
2018-11-01T12:54:42.740Z,78.5
2018-11-01T12:55:43.074Z,78.57
2018-11-01T12:56:42.693Z,78.74
2018-11-01T12:57:42.739Z,78.58